Time;durP1;ratioP1;P1;durP2;ratioP2;P2;SDS_P1;SDS_P2;PMS_P1;PMS_P2;Temp;Humidity;BMP_temperature;BMP_pressure;BME280_temperature;BME280_humidity;BME280_pressure;Samples;Min_cycle;Max_cycle;Signal;HPM_P1;HPM_P2
2021/08/03 00:04:47;;;;;;;1.80;1.60;;;;;;;17.04;59.98;100400.36;5326637;55;21167;-75
2021/08/03 00:09:56;;;;;;;2.40;1.43;;;;;;;17.07;59.96;100399.55;5326685;55;22419;-74
2021/08/03 00:15:03;;;;;;;3.20;1.30;;;;;;;17.04;59.92;100399.86;5324628;54;21534;-75
2021/08/03 00:20:10;;;;;;;2.03;0.93;;;;;;;16.98;60.07;100397.83;5325271;55;21183;-75
2021/08/03 00:25:16;;;;;;;1.93;1.17;;;;;;;16.95;60.22;100402.69;5325118;55;21206;-75
2021/08/03 00:30:25;;;;;;;6.57;1.63;;;;;;;16.91;60.39;100412.02;5325209;55;21192;-75
2021/08/03 00:35:30;;;;;;;6.37;0.90;;;;;;;16.75;60.60;100408.30;5325545;55;21180;-74
2021/08/03 00:40:41;;;;;;;3.90;1.03;;;;;;;16.60;60.82;100407.20;5250587;55;22406;-75
2021/08/03 00:45:47;;;;;;;3.57;1.10;;;;;;;16.48;61.04;100413.33;5221426;55;21272;-75
2021/08/03 00:50:53;;;;;;;1.70;1.17;;;;;;;16.37;61.42;100420.75;5213057;57;21665;-75
2021/08/03 00:56:01;;;;;;;1.73;1.23;;;;;;;16.24;61.60;100424.35;5213092;57;21174;-75
2021/08/03 01:01:08;;;;;;;2.40;1.07;;;;;;;16.10;62.14;100433.28;5213084;57;22506;-75
2021/08/03 01:06:49;;;;;;;2.10;1.00;;;;;;;15.95;62.65;100428.17;5223509;57;21159;-75
2021/08/03 01:12:06;;;;;;;2.70;1.40;;;;;;;15.83;63.31;100432.09;5220218;57;21166;-74
2021/08/03 01:17:34;;;;;;;7.47;1.87;;;;;;;15.71;63.38;100429.33;4964885;59;21318;-74
2021/08/03 01:23:12;;;;;;;3.43;1.90;;;;;;;15.66;64.01;100432.45;4957915;59;21205;-75
2021/08/03 01:28:28;;;;;;;2.27;1.70;;;;;;;15.59;64.13;100435.86;5004300;57;21089;-75
2021/08/03 01:33:38;;;;;;;4.13;1.73;;;;;;;15.56;64.41;100439.70;5122093;57;21621;-74
2021/08/03 01:38:46;;;;;;;1.60;1.50;;;;;;;15.56;64.60;100437.53;5064987;58;21189;-74
2021/08/03 01:43:52;;;;;;;1.47;1.37;;;;;;;15.57;64.77;100444.54;5035272;58;21221;-73
2021/08/03 01:49:00;;;;;;;3.33;1.63;;;;;;;15.53;64.91;100449.79;5035092;59;21194;-74
2021/08/03 01:54:08;;;;;;;6.37;1.50;;;;;;;15.47;65.07;100451.23;5202142;55;21131;-74
2021/08/03 01:59:15;;;;;;;2.23;1.63;;;;;;;15.44;65.27;100454.19;5204162;55;21154;-74
2021/08/03 02:04:22;;;;;;;7.67;1.50;;;;;;;15.39;65.48;100462.66;5181183;56;21685;-74
2021/08/03 02:09:28;;;;;;;3.30;1.50;;;;;;;15.36;65.63;100460.29;5221139;55;21118;-74
2021/08/03 02:14:34;;;;;;;2.57;1.50;;;;;;;15.30;65.82;100469.37;5221261;56;21228;-74
2021/08/03 02:19:45;;;;;;;2.50;1.63;;;;;;;15.25;66.11;100464.52;5286939;55;21071;-74
2021/08/03 02:24:51;;;;;;;3.13;1.30;;;;;;;15.24;66.19;100468.16;5311749;55;21255;-74
2021/08/03 02:29:58;;;;;;;3.50;1.57;;;;;;;15.28;66.20;100470.01;5283721;55;21155;-73
2021/08/03 02:35:20;;;;;;;8.30;1.30;;;;;;;15.28;66.57;100465.52;5294341;55;21772;-75
2021/08/03 02:40:27;;;;;;;4.83;1.53;;;;;;;15.25;66.57;100473.84;5289974;55;21154;-74
2021/08/03 02:45:41;;;;;;;2.37;1.80;;;;;;;15.16;66.80;100474.72;5284217;54;21097;-73
2021/08/03 02:50:49;;;;;;;2.77;2.00;;;;;;;15.10;66.97;100479.33;5193873;56;21188;-74
2021/08/03 02:55:59;;;;;;;6.90;1.50;;;;;;;15.04;67.08;100477.25;5250881;55;21137;-74
2021/08/03 03:01:10;;;;;;;7.25;1.80;;;;;;;15.04;67.43;100467.92;5276715;56;21177;-73
2021/08/03 03:06:19;;;;;;;7.07;1.63;;;;;;;15.03;67.45;100479.07;5276560;56;21509;-74
2021/08/03 03:11:32;;;;;;;3.30;1.80;;;;;;;15.00;67.75;100482.03;5276678;56;21184;-74
2021/08/03 03:16:43;;;;;;;3.27;1.70;;;;;;;15.00;68.18;100484.69;5275793;56;21133;-74
2021/08/03 03:21:51;;;;;;;3.90;1.40;;;;;;;14.98;68.16;100491.98;5273846;56;21074;-74
2021/08/03 03:26:58;;;;;;;3.07;1.43;;;;;;;14.92;68.51;100495.75;5231467;56;21594;-74
2021/08/03 03:32:05;;;;;;;4.33;1.67;;;;;;;14.83;68.71;100501.94;5229683;56;21201;-74
2021/08/03 03:37:12;;;;;;;6.60;2.10;;;;;;;14.75;68.84;100499.53;5210974;56;21148;-74
2021/08/03 03:42:20;;;;;;;5.67;1.90;;;;;;;14.68;69.06;100504.23;5276852;56;21141;-74
2021/08/03 03:47:32;;;;;;;3.67;1.90;;;;;;;14.66;69.25;100499.58;5342193;55;21160;-74
2021/08/03 03:52:45;;;;;;;8.05;2.12;;;;;;;14.69;69.17;100500.11;5385680;55;22010;-74
2021/08/03 03:57:52;;;;;;;9.53;1.93;;;;;;;14.81;69.22;100502.11;5385395;55;21206;-73
2021/08/03 04:03:00;;;;;;;3.43;2.20;;;;;;;14.82;69.16;100510.94;5385502;55;21149;-73
2021/08/03 04:08:11;;;;;;;9.03;2.20;;;;;;;14.74;69.26;100505.00;5385315;55;21145;-73
2021/08/03 04:13:16;;;;;;;13.10;1.90;;;;;;;14.77;69.54;100506.89;5385327;55;21661;-73
2021/08/03 04:18:22;;;;;;;7.97;2.43;;;;;;;14.74;69.47;100513.83;5385365;55;21176;-74
2021/08/03 04:23:28;;;;;;;6.63;1.80;;;;;;;14.69;69.58;100516.08;5385227;55;21616;-73
2021/08/03 04:28:34;;;;;;;3.43;1.87;;;;;;;14.67;69.71;100519.38;5385359;55;21094;-74
2021/08/03 04:33:40;;;;;;;1.93;1.60;;;;;;;14.71;70.17;100522.59;5385256;55;21202;-74
2021/08/03 04:38:46;;;;;;;7.83;2.87;;;;;;;14.68;70.42;100521.55;5341588;55;22183;-73
2021/08/03 04:43:51;;;;;;;3.30;2.17;;;;;;;14.68;70.59;100521.55;5294332;56;21154;-74
2021/08/03 04:48:57;;;;;;;5.97;1.60;;;;;;;14.65;70.83;100524.03;5258454;56;21141;-74
2021/08/03 04:54:03;;;;;;;7.13;2.07;;;;;;;14.70;71.08;100527.56;5247752;56;21150;-73
2021/08/03 04:59:09;;;;;;;3.93;1.77;;;;;;;14.73;71.55;100533.45;5247824;56;21203;-73
2021/08/03 05:04:15;;;;;;;3.23;1.40;;;;;;;14.76;71.50;100527.84;5247582;56;21508;-73
2021/08/03 05:09:20;;;;;;;2.03;1.57;;;;;;;14.84;71.72;100528.91;5247653;56;21161;-73
2021/08/03 05:14:26;;;;;;;5.17;1.63;;;;;;;14.92;71.88;100531.70;5247670;56;21153;-74
2021/08/03 05:19:32;;;;;;;2.17;1.63;;;;;;;14.97;71.95;100532.92;5247731;56;21086;-73
2021/08/03 05:24:37;;;;;;;3.33;1.50;;;;;;;15.07;71.81;100527.56;5241584;56;21563;-74
2021/08/03 05:29:43;;;;;;;1.83;1.73;;;;;;;15.16;72.01;100528.00;5236441;56;21180;-74
2021/08/03 05:34:49;;;;;;;5.97;1.53;;;;;;;15.31;72.04;100529.67;5236775;56;21458;-74
2021/08/03 05:39:55;;;;;;;1.63;1.53;;;;;;;15.44;72.24;100539.48;5300148;55;21171;-74
2021/08/03 05:45:02;;;;;;;2.03;1.83;;;;;;;15.55;72.00;100533.12;5326004;55;21183;-73
2021/08/03 05:50:09;;;;;;;1.33;1.23;;;;;;;15.67;71.95;100532.78;5274007;55;21457;-73
2021/08/03 05:55:14;;;;;;;6.03;1.93;;;;;;;15.79;71.91;100533.38;5265647;56;21140;-74
2021/08/03 06:00:20;;;;;;;3.37;1.43;;;;;;;15.92;72.02;100532.99;5265783;56;21583;-74
2021/08/03 06:05:27;;;;;;;2.27;1.27;;;;;;;16.00;71.85;100537.92;5266541;56;21177;-74
2021/08/03 06:10:35;;;;;;;3.97;1.73;;;;;;;16.19;72.12;100540.40;5265811;56;21215;-74
2021/08/03 06:15:43;;;;;;;4.27;1.37;;;;;;;16.36;71.72;100536.02;5265509;56;21585;-73
2021/08/03 06:20:50;;;;;;;4.33;1.40;;;;;;;16.53;71.45;100534.31;5266617;56;21239;-73
2021/08/03 06:25:58;;;;;;;6.60;1.43;;;;;;;16.70;70.83;100540.62;5266589;56;22522;-73
2021/08/03 06:31:05;;;;;;;2.73;1.23;;;;;;;16.88;70.71;100536.90;5265578;56;21209;-74
2021/08/03 06:36:11;;;;;;;5.73;0.93;;;;;;;17.02;69.60;100539.97;5265783;56;21168;-74
2021/08/03 06:41:32;;;;;;;2.90;1.00;;;;;;;17.15;69.86;100538.52;5181637;56;21186;-74
2021/08/03 06:46:43;;;;;;;4.00;1.37;;;;;;;17.33;69.29;100524.22;5180242;56;22385;-74
2021/08/03 06:51:52;;;;;;;2.47;1.40;;;;;;;17.51;68.72;100525.78;5214445;57;22418;-74
2021/08/03 06:57:10;;;;;;;8.23;1.30;;;;;;;17.68;66.64;100529.86;5215075;57;21576;-75
2021/08/03 07:02:29;;;;;;;2.80;1.13;;;;;;;17.75;67.23;100527.69;5214194;57;21264;-73
2021/08/03 07:07:37;;;;;;;2.37;0.93;;;;;;;17.87;66.56;100532.23;5210060;57;21297;-74
2021/08/03 07:12:46;;;;;;;3.70;0.80;;;;;;;17.92;65.98;100530.72;5214528;57;21177;-75
2021/08/03 07:17:53;;;;;;;3.60;1.10;;;;;;;18.01;65.19;100528.91;5253540;56;21202;-75
2021/08/03 07:23:00;;;;;;;3.83;1.10;;;;;;;18.05;64.35;100524.03;5240448;55;21191;-74
2021/08/03 07:28:06;;;;;;;4.70;0.93;;;;;;;18.21;65.65;100534.73;5254555;56;21182;-74
2021/08/03 07:33:20;;;;;;;1.97;0.70;;;;;;;18.42;65.06;100528.87;5272732;56;21142;-73
2021/08/03 07:38:25;;;;;;;6.60;2.30;;;;;;;18.64;64.52;100544.25;5310482;55;22133;-74
2021/08/03 07:43:31;;;;;;;4.17;1.10;;;;;;;18.80;63.38;100539.36;5310629;56;21144;-74
2021/08/03 07:48:37;;;;;;;64.00;7.33;;;;;;;19.00;62.31;100536.63;5332221;55;21133;-74
2021/08/03 07:53:42;;;;;;;1.42;0.80;;;;;;;19.09;61.20;100538.80;5386600;54;21519;-74
2021/08/03 07:58:49;;;;;;;3.97;1.53;;;;;;;19.14;60.24;100540.42;5378047;54;22341;-74
2021/08/03 08:03:54;;;;;;;0.62;0.42;;;;;;;19.28;60.09;100532.98;5375578;55;21251;-74
2021/08/03 08:09:00;;;;;;;7.87;1.25;;;;;;;19.34;58.59;100529.63;5375632;54;21165;-74
2021/08/03 08:14:06;;;;;;;8.80;2.20;;;;;;;19.49;58.97;100537.75;5351100;55;21140;-74
2021/08/03 08:19:11;;;;;;;3.50;1.42;;;;;;;19.66;56.81;100536.18;5337142;55;22118;-75
2021/08/03 08:24:17;;;;;;;1.55;0.93;;;;;;;19.80;56.97;100537.26;5327851;55;21174;-74
2021/08/03 08:29:23;;;;;;;5.35;0.62;;;;;;;19.92;56.42;100534.98;5294383;56;21089;-74
2021/08/03 08:34:28;;;;;;;2.72;0.90;;;;;;;20.01;54.13;100533.39;5294274;55;21213;-74
2021/08/03 08:39:34;;;;;;;4.50;0.88;;;;;;;20.18;55.80;100530.07;5352274;55;21133;-74
2021/08/03 08:44:40;;;;;;;0.72;0.60;;;;;;;20.36;55.83;100534.66;5383443;55;21164;-74
2021/08/03 08:49:47;;;;;;;4.58;0.68;;;;;;;20.57;52.54;100519.69;5326577;55;21186;-73
2021/08/03 08:54:52;;;;;;;2.20;0.98;;;;;;;20.64;53.98;100528.66;5219164;57;21178;-74
2021/08/03 08:59:58;;;;;;;2.87;1.02;;;;;;;20.68;53.43;100529.47;5219082;57;21143;-74
2021/08/03 09:05:04;;;;;;;7.00;1.27;;;;;;;20.88;53.21;100523.55;5218964;57;21155;-75
2021/08/03 09:10:11;;;;;;;34.80;2.47;;;;;;;20.95;51.80;100532.52;5218966;57;21191;-74
2021/08/03 09:15:21;;;;;;;9.70;1.47;;;;;;;21.02;51.97;100532.12;5218910;57;21197;-74
2021/08/03 09:20:31;;;;;;;2.92;0.62;;;;;;;21.14;51.17;100532.47;5219149;56;21191;-75
2021/08/03 09:25:38;;;;;;;2.05;1.10;;;;;;;21.29;50.88;100526.08;5218713;57;21146;-74
2021/08/03 09:30:44;;;;;;;5.47;1.65;;;;;;;21.19;50.47;100536.31;5208561;57;22384;-74
2021/08/03 09:35:50;;;;;;;6.42;1.75;;;;;;;21.38;50.53;100524.14;5208358;57;21182;-75
2021/08/03 09:41:09;;;;;;;3.62;1.10;;;;;;;21.56;50.48;100526.38;5208401;57;21218;-74
2021/08/03 09:46:19;;;;;;;4.03;1.02;;;;;;;21.70;50.14;100516.91;5196018;56;21179;-74
2021/08/03 09:51:25;;;;;;;4.08;0.80;;;;;;;21.69;50.08;100527.36;5180889;56;21662;-74
2021/08/03 09:56:35;;;;;;;2.92;1.00;;;;;;;21.91;50.18;100520.65;5267503;55;21153;-75
2021/08/03 10:01:42;;;;;;;0.75;0.50;;;;;;;22.07;47.59;100527.16;5267427;56;21555;-76
2021/08/03 10:06:48;;;;;;;5.67;0.88;;;;;;;22.07;47.70;100519.91;5198551;56;22406;-75
2021/08/03 10:11:56;;;;;;;3.90;0.78;;;;;;;22.33;48.85;100525.19;5180029;57;21469;-75
2021/08/03 10:17:01;;;;;;;6.00;0.88;;;;;;;22.53;46.59;100522.14;5180176;57;21451;-75
2021/08/03 10:22:18;;;;;;;1.47;1.00;;;;;;;22.45;46.38;100514.22;5180071;57;21262;-74
2021/08/03 10:27:24;;;;;;;2.17;0.85;;;;;;;22.49;47.39;100520.86;5179709;56;22462;-75
2021/08/03 10:32:49;;;;;;;4.00;1.20;;;;;;;22.34;45.10;100518.27;5180107;56;21176;-75
2021/08/03 10:38:06;;;;;;;100.82;10.28;;;;;;;22.38;45.53;100522.75;5180700;56;21142;-75
2021/08/03 10:43:34;;;;;;;2.40;0.75;;;;;;;22.35;43.91;100519.09;5179972;57;21768;-74
2021/08/03 10:48:43;;;;;;;2.55;0.98;;;;;;;22.32;45.25;100526.22;5203152;56;22045;-75
2021/08/03 10:54:11;;;;;;;1.47;1.00;;;;;;;22.34;46.08;100533.59;5313040;55;21151;-75
2021/08/03 10:59:42;;;;;;;2.10;0.98;;;;;;;22.50;44.78;100528.43;5369583;55;21093;-75
2021/08/03 11:04:57;;;;;;;0.82;0.75;;;;;;;22.81;43.56;100523.49;5302785;55;22064;-74
2021/08/03 11:10:20;;;;;;;2.40;0.80;;;;;;;23.04;42.41;100523.22;5293969;56;21097;-75
2021/08/03 11:15:35;;;;;;;6.85;0.88;;;;;;;22.94;44.32;100524.91;5294091;56;21163;-74
2021/08/03 11:20:48;;;;;;;3.98;1.20;;;;;;;22.82;44.35;100518.93;5292221;55;22118;-75
2021/08/03 11:25:57;;;;;;;0.85;0.62;;;;;;;22.64;44.43;100512.67;5308729;55;21149;-76
2021/08/03 11:31:02;;;;;;;4.83;1.00;;;;;;;22.49;44.91;100524.91;5284990;55;21160;-76
2021/08/03 11:36:11;;;;;;;0.60;0.60;;;;;;;22.39;46.59;100521.73;5293983;56;21156;-75
2021/08/03 11:41:17;;;;;;;2.70;1.02;;;;;;;22.36;46.40;100530.20;5294706;55;21145;-75
2021/08/03 11:46:27;;;;;;;6.05;1.02;;;;;;;22.17;46.53;100529.00;5294529;56;21183;-75
2021/08/03 11:51:43;;;;;;;11.68;1.40;;;;;;;22.06;47.41;100525.48;5264414;56;21099;-75
2021/08/03 11:56:46;;;;;;;10.03;1.12;;;;;;;22.02;48.15;100526.89;5190043;57;21109;-75
2021/08/03 12:01:53;;;;;;;1.50;0.85;;;;;;;22.01;47.80;100522.53;5189693;57;21162;-76
2021/08/03 12:06:58;;;;;;;2.45;0.65;;;;;;;22.03;47.96;100518.63;5189633;57;22108;-74
2021/08/03 12:12:04;;;;;;;1.82;0.78;;;;;;;22.09;48.37;100515.68;5228580;56;22098;-75
2021/08/03 12:17:26;;;;;;;5.53;0.90;;;;;;;22.21;47.32;100524.89;5211411;56;21149;-75
2021/08/03 12:22:33;;;;;;;3.35;1.00;;;;;;;22.20;47.29;100519.19;5270622;56;21699;-75
2021/08/03 12:27:42;;;;;;;1.42;0.75;;;;;;;22.21;46.95;100513.28;5189712;57;21209;-75
2021/08/03 12:32:49;;;;;;;3.90;1.25;;;;;;;22.23;47.52;100505.33;5189823;57;22104;-75
2021/08/03 12:38:13;;;;;;;2.40;1.32;;;;;;;22.31;46.40;100500.30;5216527;56;21504;-75
2021/08/03 12:43:22;;;;;;;3.40;0.90;;;;;;;22.52;46.25;100491.34;5254133;56;21191;-74
2021/08/03 12:48:28;;;;;;;1.30;1.12;;;;;;;22.80;45.68;100491.64;5254289;56;21172;-75
2021/08/03 12:53:34;;;;;;;0.80;0.80;;;;;;;23.04;44.73;100487.63;5091434;58;21104;-76
2021/08/03 12:58:45;;;;;;;0.80;0.78;;;;;;;23.19;43.93;100481.25;5118630;58;21108;-75
2021/08/03 13:03:53;;;;;;;1.40;0.95;;;;;;;23.49;44.63;100479.38;5115594;58;21202;-75
2021/08/03 13:08:59;;;;;;;22.90;16.27;;;;;;;23.51;43.39;100472.46;5051007;58;21226;-74
2021/08/03 13:14:05;;;;;;;5.42;3.70;;;;;;;23.59;42.77;100470.91;5115549;58;21175;-74
2021/08/03 13:19:10;;;;;;;9.40;3.40;;;;;;;23.67;43.05;100459.92;5207017;57;22261;-73
2021/08/03 13:24:16;;;;;;;4.03;1.45;;;;;;;23.86;43.35;100470.41;5209942;57;21483;-73
2021/08/03 13:29:22;;;;;;;1.10;1.00;;;;;;;24.03;42.52;100461.39;5209695;57;21191;-73
2021/08/03 13:34:28;;;;;;;1.37;0.60;;;;;;;24.11;43.17;100466.08;5209911;57;21215;-74
2021/08/03 13:39:33;;;;;;;1.45;0.70;;;;;;;24.14;43.61;100444.53;5155816;57;21164;-73
2021/08/03 13:44:39;;;;;;;6.17;0.95;;;;;;;24.09;43.02;100438.43;5195232;57;21097;-78
2021/08/03 13:49:46;;;;;;;3.92;0.90;;;;;;;24.20;43.53;100424.80;5124866;58;21545;-83
2021/08/03 13:54:52;;;;;;;4.05;1.37;;;;;;;24.49;43.74;100415.41;5262626;56;21156;-79
2021/08/03 13:59:58;;;;;;;7.15;0.90;;;;;;;24.77;43.25;100406.47;5097723;58;21158;-85
2021/08/03 14:05:03;;;;;;;3.30;0.80;;;;;;;24.84;42.39;100408.64;5164605;57;21239;-81
2021/08/03 14:10:10;;;;;;;4.25;0.80;;;;;;;24.88;40.98;100406.34;5204861;57;21622;-78
2021/08/03 14:15:16;;;;;;;2.55;1.05;;;;;;;24.86;41.48;100401.66;5198495;57;21179;-82
2021/08/03 14:20:21;;;;;;;4.70;0.90;;;;;;;24.93;42.63;100388.08;5198772;56;21265;-82
2021/08/03 14:25:27;;;;;;;5.37;0.93;;;;;;;25.04;39.79;100389.64;5198654;57;21136;-78
2021/08/03 14:30:35;;;;;;;2.50;0.90;;;;;;;24.87;40.12;100392.50;5198282;57;21468;-79
2021/08/03 14:35:41;;;;;;;0.80;0.80;;;;;;;24.65;40.68;100389.25;5198661;57;21261;-80
2021/08/03 14:40:46;;;;;;;1.27;0.98;;;;;;;24.72;41.90;100380.60;5188012;57;21191;-79
2021/08/03 14:45:52;;;;;;;1.45;0.82;;;;;;;24.63;41.61;100376.98;5113658;58;21119;-79
2021/08/03 14:51:00;;;;;;;1.37;0.70;;;;;;;24.51;41.68;100374.12;5186400;57;21573;-78
2021/08/03 14:56:09;;;;;;;0.70;0.70;;;;;;;24.33;41.96;100376.14;5087786;58;22402;-80
2021/08/03 15:01:15;;;;;;;5.55;1.98;;;;;;;24.43;43.44;100372.49;5265592;55;21215;-77
2021/08/03 15:06:21;;;;;;;3.02;1.87;;;;;;;24.72;43.22;100360.31;5265679;56;22429;-81
2021/08/03 15:11:27;;;;;;;1.77;1.20;;;;;;;25.03;42.02;100370.39;5265535;56;22443;-76
2021/08/03 15:16:32;;;;;;;2.05;0.80;;;;;;;25.15;41.41;100363.23;5266024;56;21697;-77
2021/08/03 15:21:38;;;;;;;2.47;0.82;;;;;;;25.27;39.23;100359.30;5265828;56;22426;-77
2021/08/03 15:26:44;;;;;;;3.77;0.70;;;;;;;25.27;38.85;100355.76;5266002;56;21176;-77
2021/08/03 15:31:49;;;;;;;4.03;1.10;;;;;;;25.03;37.88;100358.73;5266085;56;21199;-82
2021/08/03 15:36:55;;;;;;;1.22;0.90;;;;;;;24.95;39.83;100358.45;5256782;56;21114;-81
2021/08/03 15:42:01;;;;;;;1.67;1.00;;;;;;;24.97;39.45;100360.94;5179204;57;21104;-78
2021/08/03 15:47:07;;;;;;;0.90;0.90;;;;;;;24.79;40.06;100354.86;5178910;57;21518;-79
2021/08/03 15:52:13;;;;;;;4.17;0.98;;;;;;;24.66;40.10;100355.75;5179483;57;21190;-80
2021/08/03 15:57:18;;;;;;;0.85;0.85;;;;;;;24.75;40.58;100353.66;5179202;56;21119;-75
2021/08/03 16:02:24;;;;;;;4.25;0.90;;;;;;;24.83;40.12;100350.16;5179186;57;21455;-77
2021/08/03 16:07:30;;;;;;;1.85;1.05;;;;;;;24.91;40.69;100343.66;5179233;57;21257;-80
2021/08/03 16:12:36;;;;;;;3.72;0.90;;;;;;;24.94;40.53;100348.67;5179178;57;21209;-79
2021/08/03 16:18:10;;;;;;;0.85;0.85;;;;;;;24.76;40.40;100345.81;5179296;57;21159;-78
2021/08/03 16:23:16;;;;;;;0.93;0.93;;;;;;;24.57;40.41;100340.83;5179891;57;21267;-79
2021/08/03 16:28:22;;;;;;;6.10;1.12;;;;;;;24.51;41.32;100343.86;5179728;57;21189;-78
2021/08/03 16:33:29;;;;;;;1.30;0.90;;;;;;;24.40;40.76;100349.10;5208605;56;22109;-79
2021/08/03 16:38:38;;;;;;;8.33;3.75;;;;;;;24.26;40.79;100357.78;5179637;56;22516;-78
2021/08/03 16:43:44;;;;;;;11.18;4.85;;;;;;;24.05;42.19;100364.22;5200890;56;22597;-81
2021/08/03 16:48:51;;;;;;;12.13;5.05;;;;;;;23.90;43.14;100362.79;5248268;56;21185;-90
2021/08/03 16:53:58;;;;;;;6.58;3.85;;;;;;;23.85;44.34;100368.81;5273537;55;21102;-90
2021/08/03 16:59:06;;;;;;;5.17;2.22;;;;;;;23.72;45.04;100376.92;5329632;55;21633;-88
2021/08/03 17:04:24;;;;;;;4.53;2.47;;;;;;;23.68;46.18;100380.55;5330385;55;21203;-86
2021/08/03 17:09:43;;;;;;;2.15;1.45;;;;;;;23.66;46.23;100383.17;5269555;55;21186;-91
2021/08/03 17:14:54;;;;;;;9.53;1.98;;;;;;;23.58;46.68;100386.06;5321847;55;21179;-88
2021/08/03 17:20:09;;;;;;;5.62;1.92;;;;;;;23.58;46.72;100380.66;5330396;55;21175;-87
2021/08/03 17:25:20;;;;;;;14.65;2.62;;;;;;;23.57;46.78;100383.88;5330185;55;21254;-88
2021/08/03 17:30:26;;;;;;;2.45;1.67;;;;;;;23.58;46.84;100388.76;5330276;55;21711;-89
2021/08/03 17:35:32;;;;;;;9.98;1.90;;;;;;;23.52;46.66;100403.10;5330112;55;21184;-87
2021/08/03 17:40:38;;;;;;;2.58;2.08;;;;;;;23.49;46.99;100392.99;5329851;55;21199;-87
2021/08/03 17:45:51;;;;;;;3.58;2.25;;;;;;;23.51;47.02;100399.57;5330143;55;21190;-87
2021/08/03 17:50:57;;;;;;;11.90;3.05;;;;;;;23.49;47.12;100407.01;5330282;55;21180;-89
2021/08/03 17:56:03;;;;;;;2.67;1.98;;;;;;;23.48;47.37;100410.23;5329985;55;21242;-87
2021/08/03 18:01:09;;;;;;;7.50;2.15;;;;;;;23.40;47.20;100405.00;5330010;55;21488;-88
2021/08/03 18:06:17;;;;;;;4.90;2.33;;;;;;;23.27;47.24;100403.63;5329984;55;21246;-88
2021/08/03 18:11:24;;;;;;;10.72;3.33;;;;;;;23.24;47.73;100413.48;5330126;55;21171;-88
2021/08/03 18:16:35;;;;;;;10.00;4.12;;;;;;;23.22;47.74;100413.40;5306894;55;21172;-88
2021/08/03 18:21:39;;;;;;;4.55;1.70;;;;;;;23.17;47.92;100411.30;5329951;55;22441;-87
2021/08/03 18:26:48;;;;;;;4.40;1.98;;;;;;;23.17;48.36;100410.47;5329528;55;21116;-88
2021/08/03 18:31:56;;;;;;;35.78;3.67;;;;;;;23.12;48.46;100401.62;5328929;55;21660;-86
2021/08/03 18:37:04;;;;;;;22.93;3.15;;;;;;;23.08;48.63;100404.41;5316789;55;21832;-87
2021/08/03 18:42:13;;;;;;;15.63;3.02;;;;;;;22.98;48.53;100398.06;5239323;56;21183;-86
2021/08/03 18:47:22;;;;;;;71.02;23.80;;;;;;;22.97;49.07;100402.30;5239453;56;21163;-88
2021/08/03 18:52:28;;;;;;;32.83;12.15;;;;;;;22.95;49.68;100398.97;5240032;56;21629;-87
2021/08/03 18:57:36;;;;;;;46.90;13.08;;;;;;;22.94;50.21;100405.40;5240329;56;21140;-86
2021/08/03 19:02:44;;;;;;;79.15;24.57;;;;;;;22.85;50.12;100402.58;5240213;56;21558;-86
2021/08/03 19:08:05;;;;;;;50.88;12.28;;;;;;;22.75;50.12;100413.20;5239511;56;21246;-87
2021/08/03 19:13:16;;;;;;;46.98;8.43;;;;;;;22.70;50.43;100418.35;5238943;56;22439;-89
2021/08/03 19:18:32;;;;;;;41.48;8.65;;;;;;;22.63;50.62;100420.17;5239778;56;21171;-87
2021/08/03 19:23:40;;;;;;;33.75;6.22;;;;;;;22.60;50.80;100426.50;5239745;56;21775;-89
2021/08/03 19:28:46;;;;;;;28.55;8.65;;;;;;;22.53;50.86;100435.05;5239746;56;21195;-89
2021/08/03 19:33:52;;;;;;;38.50;16.02;;;;;;;22.30;51.07;100447.47;5240428;56;21204;-88
2021/08/03 19:38:58;;;;;;;44.60;16.45;;;;;;;22.13;51.56;100448.27;5286298;55;21172;-88
2021/08/03 19:44:04;;;;;;;39.73;13.72;;;;;;;22.07;51.62;100464.69;5329084;55;21164;-86
2021/08/03 19:49:15;;;;;;;35.45;13.98;;;;;;;21.83;52.11;100460.21;5328529;55;21171;-86
2021/08/03 19:54:26;;;;;;;51.40;13.53;;;;;;;21.79;52.22;100461.61;5327984;55;21199;-87
2021/08/03 19:59:38;;;;;;;40.20;11.43;;;;;;;21.68;52.90;100456.24;5283755;55;21184;-85
2021/08/03 20:04:44;;;;;;;42.45;12.85;;;;;;;21.60;53.17;100457.70;5268758;56;21204;-88
2021/08/03 20:09:51;;;;;;;42.98;12.18;;;;;;;21.49;53.31;100458.22;5268577;56;21195;-87
2021/08/03 20:14:57;;;;;;;46.08;10.72;;;;;;;21.39;53.65;100465.23;5262334;56;21101;-87
2021/08/03 20:20:05;;;;;;;35.85;11.65;;;;;;;21.35;53.88;100475.56;5216586;56;21164;-87
2021/08/03 20:25:13;;;;;;;35.08;13.85;;;;;;;21.32;54.15;100480.48;4993377;56;35712;-89
2021/08/03 20:30:22;;;;;;;26.77;10.28;;;;;;;21.28;54.51;100477.84;4871046;61;21238;-88
2021/08/03 20:35:36;;;;;;;11.18;6.00;;;;;;;21.22;54.62;100475.93;4870142;61;21206;-91
2021/08/03 20:40:47;;;;;;;27.00;7.75;;;;;;;21.11;54.95;100481.23;4935489;60;21176;-88
2021/08/03 20:46:08;;;;;;;25.97;7.35;;;;;;;21.02;55.21;100487.23;4943777;60;21215;-84
2021/08/03 20:51:13;;;;;;;28.98;7.17;;;;;;;20.91;55.48;100486.38;4947121;60;22453;-84
2021/08/03 20:56:22;;;;;;;40.05;13.08;;;;;;;20.73;55.69;100483.73;4848443;61;21524;-81
2021/08/03 21:01:35;;;;;;;26.97;11.22;;;;;;;20.56;56.10;100481.73;4848366;61;21255;-85
2021/08/03 21:06:41;;;;;;;;;;;;;;;20.50;56.82;100492.70;4851847;61;21483;-81
2021/08/03 21:11:46;;;;;;;41.25;14.20;;;;;;;20.47;57.32;100495.75;4874120;59;20396;-80
2021/08/03 21:16:52;;;;;;;21.17;7.47;;;;;;;20.44;57.60;100493.45;4897577;60;21192;-81
2021/08/03 21:22:16;;;;;;;14.78;4.37;;;;;;;20.38;57.80;100496.02;4938268;60;21192;-80
2021/08/03 21:27:41;;;;;;;4.42;3.10;;;;;;;20.24;58.17;100499.81;4944960;60;21238;-81
2021/08/03 21:33:05;;;;;;;11.40;2.98;;;;;;;20.10;58.51;100501.96;4944839;59;21187;-82
2021/08/03 21:38:28;;;;;;;19.75;2.72;;;;;;;19.90;59.11;100493.56;4975665;59;22145;-81
2021/08/03 21:43:51;;;;;;;6.20;2.33;;;;;;;19.70;59.48;100488.88;4985423;59;21116;-80
2021/08/03 21:49:15;;;;;;;12.90;3.17;;;;;;;19.52;59.60;100485.97;4944640;60;21215;-77
2021/08/03 21:54:19;;;;;;;9.70;2.87;;;;;;;19.37;59.53;100485.02;4944800;60;21175;-78
2021/08/03 21:59:24;;;;;;;14.00;2.67;;;;;;;19.30;59.40;100489.41;4938685;60;21175;-79
2021/08/03 22:04:29;;;;;;;10.43;2.42;;;;;;;19.22;59.18;100489.47;4968812;59;21191;-78
2021/08/03 22:09:36;;;;;;;9.35;2.58;;;;;;;19.07;59.20;100489.38;4976350;59;21195;-82
2021/08/03 22:14:42;;;;;;;12.25;2.20;;;;;;;19.11;59.53;100488.49;4937747;59;21212;-77
2021/08/03 22:19:48;;;;;;;9.00;3.30;;;;;;;19.08;59.45;100483.00;4936317;60;21207;-83
2021/08/03 22:24:53;;;;;;;9.48;2.72;;;;;;;18.88;59.42;100481.73;4936521;60;21295;-81
2021/08/03 22:29:59;;;;;;;9.38;3.50;;;;;;;18.88;60.00;100467.00;4936215;59;21207;-78
2021/08/03 22:35:05;;;;;;;13.03;3.67;;;;;;;18.82;60.03;100470.36;4936310;60;21144;-81
2021/08/03 22:40:12;;;;;;;12.65;3.83;;;;;;;18.74;60.26;100470.41;4936172;59;21219;-77
2021/08/03 22:45:17;;;;;;;21.37;4.33;;;;;;;18.77;60.55;100483.46;4936422;60;21219;-80
2021/08/03 22:50:23;;;;;;;7.00;4.50;;;;;;;18.48;60.50;100475.48;4936052;60;21148;-78
2021/08/03 22:55:28;;;;;;;15.32;4.50;;;;;;;18.31;61.07;100475.17;4894906;60;21598;-78
2021/08/03 23:00:35;;;;;;;16.27;5.33;;;;;;;18.23;61.72;100474.67;4875400;60;21212;-80
2021/08/03 23:05:41;;;;;;;14.60;5.15;;;;;;;18.33;62.05;100471.83;4915232;59;21203;-80
2021/08/03 23:10:46;;;;;;;14.73;4.78;;;;;;;18.41;62.06;100470.46;4935379;59;21211;-78
2021/08/03 23:15:52;;;;;;;7.67;3.62;;;;;;;18.49;61.96;100474.45;4933774;60;21156;-77
2021/08/03 23:20:58;;;;;;;15.75;6.28;;;;;;;18.45;61.67;100473.64;4929869;60;21545;-84
2021/08/03 23:26:04;;;;;;;12.45;6.53;;;;;;;18.27;61.46;100466.64;4897744;60;21654;-79
2021/08/03 23:31:12;;;;;;;16.60;5.47;;;;;;;18.00;61.79;100480.89;4931418;60;21207;-80
2021/08/03 23:36:18;;;;;;;10.18;6.80;;;;;;;17.84;62.34;100473.70;4936484;60;21235;-81
2021/08/03 23:41:24;;;;;;;17.83;5.87;;;;;;;17.67;62.51;100480.87;4936680;60;21207;-83
2021/08/03 23:46:30;;;;;;;7.37;4.60;;;;;;;17.59;63.05;100481.66;4924041;60;21471;-83
2021/08/03 23:51:36;;;;;;;8.37;4.70;;;;;;;17.70;63.40;100481.05;4907702;60;21306;-77